Huvudsida
METAR-TAF:

METAR-TAF

Flygplatser :

Bojnourd, Iran

latitud: 37-28N, longitud: 057-20E, höjd: 1074 m

Aktuellt väderrapport

Denna rapport gjordes för 1 timme och 6 minuter sedan, klockan 13:00 UTC
Stilla vind
Temperatur 16°C
Fuktighet 25%
Tryck 1024 hPa
Sikt 10 km eller mer
Inga moln under 1 500 m eller inga cumulonimbus

METAR: OIMN 121300Z 00000KT CAVOK 16/M04 Q1024

Tid: 17:36 (14:06 UTC)


TAF: saknas

Aktuella väderrapporter och prognoser från 4000 flygplatser (METAR- och TAF-rapporter).

De tillgängliga stationerna syns som gula och röda prickar på kartan.

För musen över prickarna för att se namnen på stationerna.

Klicka sedan för att få väderrapporter och prognoser.

För att ändra kartan: Klicka på de gröna knapparna med ett svart kors på för att zooma in; den gröna knappen med ett streck på för att zooma ut; eller på de gröna pilarna för angränsande kartor.


METAR-TAF: